Data for 06/30/2008

Time Sea-Level Adjusted Pressure Absolute Pressure Temperature Relative Humidity Dew Point   
(mb) (inHg) (mb) (inHg) (C) (F) (%) (C) (F)
00:05 1023 30.21 852 25.16 21.5 70.6 36 5.9 42.6
00:10 1023 30.21 852 25.16 22.5 72.6 33 5.6 42.1
00:15 1023 30.21 852 25.16 22.8 73.1 33 6 42.8
00:20 1023 30.21 852 25.16 22.7 72.8 33 5.9 42.6
00:25 1023 30.21 852 25.16 22.7 72.8 34 6.3 43.4
00:30 1023 30.21 852 25.16 22.2 71.9 39 7.7 45.8
00:35 1023 30.21 852 25.16 21.8 71.2 36 6.1 42.9
00:40 1023 30.21 852 25.16 22.1 71.8 35 6.2 43.2
00:45 1023 30.21 852 25.16 22 71.7 36 6.3 43.4
00:50 1023 30.21 852 25.16 21.8 71.2 37 6.6 43.9
00:55 1023 30.21 852 25.16 21.3 70.4 39 7.1 44.9
01:00 1023 30.21 852 25.16 20.7 69.2 41 7.2 45
01:05 1023 30.21 852 25.16 20.2 68.4 43 7.3 45.2
01:10 1023 30.21 852 25.16 19.9 67.8 44 7.3 45.1
01:15 1023 30.21 852 25.16 19.7 67.5 43 7 44.6
01:20 1023 30.21 852 25.16 19.6 67.3 45 7.4 45.4
01:25 1022 30.18 852 25.16 19.3 66.7 47 7.9 46.3
01:30 1022 30.18 852 25.16 18.6 65.4 49 7.7 45.8
01:35 1022 30.18 852 25.16 18.5 65.3 48 7.4 45.3
01:40 1022 30.18 851 25.13 18.7 65.7 47 7.2 44.9
01:45 1022 30.18 851 25.13 19 66.1 47 7.4 45.3
01:50 1022 30.18 851 25.13 18.8 65.9 47 7.3 45.1
01:55 1022 30.18 851 25.13 18.9 66 47 7.3 45.2
02:00 1022 30.18 851 25.13 18.9 66 48 7.7 45.9
02:05 1022 30.18 851 25.13 18.7 65.6 49 7.8 46
02:10 1022 30.18 851 25.13 18.3 65 51 8 46.4
02:15 1022 30.18 851 25.13 18.1 64.5 50 7.6 45.6
02:20 1022 30.18 851 25.13 18.1 64.5 50 7.6 45.8
02:25 1022 30.18 851 25.13 18 64.4 51 7.9 46.2
02:30 1022 30.18 851 25.13 18.1 64.5 49 7.4 45.3
02:35 1022 30.18 851 25.13 18.3 64.9 48 7.3 45.1
02:40 1022 30.18 851 25.13 18.6 65.4 47 7.1 44.9
02:45 1022 30.18 851 25.13 18.8 65.8 46 7.2 44.9
02:50 1022 30.18 851 25.13 18.9 65.9 46 7.2 45
02:55 1022 30.18 851 25.13 18.6 65.5 48 7.6 45.7
03:00 1022 30.18 851 25.13 18.2 64.8 49 7.5 45.5
03:05 1022 30.18 851 25.13 18 64.5 51 7.9 46.2
03:10 1022 30.18 851 25.13 18 64.3 49 7.3 45.1
03:15 1022 30.18 851 25.13 18.1 64.5 49 7.2 45
03:20 1022 30.18 851 25.13 18.3 64.9 48 7.1 44.8
03:25 1022 30.18 851 25.13 18.4 65.2 47 7.2 44.9
03:30 1022 30.18 851 25.13 18.6 65.4 47 7.2 44.9
03:35 1022 30.18 851 25.13 18.4 65.2 48 7.3 45.2
03:40 1022 30.18 851 25.13 18.3 65 48 7.3 45.2
03:45 1022 30.18 851 25.13 18.4 65.1 48 7.3 45.2
03:50 1022 30.18 851 25.13 18.4 65.2 48 7.4 45.4
03:55 1022 30.18 851 25.13 18.2 64.8 49 7.5 45.5
04:00 1022 30.18 851 25.13 18.3 64.9 48 7.2 45
04:05 1022 30.18 851 25.13 18.2 64.8 50 7.6 45.7
04:10 1022 30.18 851 25.13 18.2 64.7 48 7.2 45
04:15 1022 30.18 851 25.13 18.2 64.8 50 7.7 45.8
04:20 1022 30.18 851 25.13 18 64.3 50 7.4 45.4
04:25 1022 30.18 851 25.13 18 64.3 49 7.3 45.2
04:30 1022 30.18 851 25.13 18.2 64.8 48 7.2 45
04:35 1022 30.18 851 25.13 18.4 65.2 47 7.1 44.8
04:40 1022 30.18 851 25.13 18.4 65.1 48 7.3 45.2
04:45 1022 30.18 851 25.13 18.4 65 48 7.2 45
04:50 1022 30.18 851 25.13 18.3 64.9 48 7.2 44.9
04:55 1022 30.18 851 25.13 18 64.4 50 7.5 45.5
05:00 1022 30.18 851 25.13 17.5 63.5 51 7.5 45.5
05:05 1022 30.18 851 25.13 17.4 63.3 51 7.2 45
05:10 1022 30.18 851 25.13 17.6 63.7 51 7.4 45.3
05:15 1022 30.18 851 25.13 17.9 64.2 50 7.3 45.2
05:20 1022 30.18 851 25.13 17.9 64.3 51 7.8 46.1
05:25 1022 30.18 851 25.13 17.8 64.1 50 7.4 45.3
05:30 1022 30.18 851 25.13 17.8 64.1 51 7.6 45.6
05:35 1022 30.18 851 25.13 17.6 63.7 51 7.6 45.6
05:40 1022 30.18 851 25.13 17.3 63.2 52 7.4 45.4
05:45 1022 30.18 851 25.13 17 62.6 52 7.2 45
05:50 1022 30.18 851 25.13 17.2 63 50 7 44.5
05:55 1022 30.18 851 25.13 17.5 63.5 50 7.1 44.9
06:00 1022 30.18 851 25.13 17.5 63.4 50 7.1 44.8
06:05 1022 30.18 851 25.13 18.5 65.3 44 6.3 43.3
06:10 1022 30.18 851 25.13 18.1 64.5 48 7.1 44.8
06:15 1022 30.18 851 25.13 17.7 63.9 49 7.1 44.8
06:20 1022 30.18 851 25.13 17.9 64.2 47 6.4 43.6
06:25 1022 30.18 851 25.13 17.9 64.1 50 7.5 45.6
06:30 1022 30.18 851 25.13 17.5 63.4 50 6.9 44.5
06:35 1022 30.18 851 25.13 17.6 63.6 49 6.8 44.3
06:40 1022 30.18 851 25.13 17.8 64.1 50 7.5 45.5
06:45 1022 30.18 851 25.13 17.7 63.8 51 7.6 45.7
06:50 1022 30.18 852 25.16 17.7 63.8 52 7.9 46.2
06:55 1022 30.18 852 25.16 17.8 64.1 49 7.2 44.9
07:00 1022 30.18 852 25.16 18.1 64.5 51 8 46.4
07:05 1023 30.21 852 25.16 18 64.5 52 8.1 46.6
07:10 1023 30.21 852 25.16 18.1 64.6 50 7.7 45.9
07:15 1023 30.21 852 25.16 18 64.4 53 8.3 46.9
07:20 1023 30.21 852 25.16 17.8 64.1 55 8.8 47.8
07:25 1023 30.21 852 25.16 17.9 64.2 52 8.1 46.7
07:30 1023 30.21 852 25.16 18 64.5 54 8.6 47.6
07:35 1023 30.21 852 25.16 18.3 64.9 54 8.8 47.9
07:40 1023 30.21 852 25.16 17.9 64.2 56 9.2 48.5
07:45 1023 30.21 852 25.16 17.6 63.8 58 9.3 48.8
07:50 1023 30.21 852 25.16 17.5 63.5 60 9.7 49.5
07:55 1023 30.21 852 25.16 17.6 63.6 58 9.4 48.8
08:00 1023 30.21 852 25.16 18.2 64.8 50 7.7 45.9
08:05 1023 30.21 852 25.16 19.2 66.6 53 9.4 49
08:10 1023 30.21 852 25.16 19.5 67.2 53 9.8 49.6
08:15 1023 30.21 852 25.16 20.1 68.1 49 9.3 48.7
08:20 1023 30.21 852 25.16 20.5 68.9 45 8.4 47.2
08:25 1023 30.21 852 25.16 21.2 70.1 46 9.1 48.4
08:30 1023 30.21 852 25.16 21.6 71 42 8.2 46.8
08:35 1023 30.21 852 25.16 22.2 71.9 41 8.5 47.3
08:40 1023 30.21 852 25.16 22.8 73 40 8.7 47.7
08:45 1023 30.21 852 25.16 23.8 74.8 38 9 48.2
08:50 1023 30.21 852 25.16 24.1 75.3 39 9.6 49.2
08:55 1023 30.21 852 25.16 24 75.2 38 8.9 48
09:00 1023 30.21 852 25.16 24.2 75.6 37 8.6 47.5
09:05 1023 30.21 852 25.16 24.5 76 38 9.3 48.7
09:10 1023 30.21 852 25.16 24.8 76.6 36 9 48.2
09:15 1023 30.21 852 25.16 24.5 76.1 36 8.7 47.6
09:20 1023 30.21 852 25.16 25.1 77.1 33 8 46.4
09:25 1023 30.21 852 25.16 25.7 78.3 33 8.3 47
09:30 1023 30.21 852 25.16 25.5 77.9 31 7.3 45.1
09:35 1023 30.21 852 25.16 26.3 79.3 28 6.6 43.9
09:40 1023 30.21 852 25.16 26.4 79.5 30 7.6 45.8
09:45 1023 30.21 852 25.16 25.7 78.3 31 7.5 45.5
09:50 1023 30.21 852 25.16 25.4 77.8 30 6.9 44.4
09:55 1023 30.21 852 25.16 25.4 77.7 31 7.2 45
10:00 1023 30.21 852 25.16 25.9 78.5 30 7.1 44.8
10:05 1023 30.21 852 25.16 26.8 80.2 28 7.2 44.9
10:10 1023 30.21 852 25.16 27.1 80.8 26 6.4 43.6
10:15 1023 30.21 852 25.16 28 82.4 25 6.7 44.1
10:20 1023 30.21 852 25.16 28.2 82.7 25 6.4 43.4
10:25 1023 30.21 852 25.16 28.6 83.4 24 6.4 43.4
10:30 1023 30.21 852 25.16 28.7 83.7 26 7.4 45.3
10:35 1023 30.21 852 25.16 28 82.4 25 6.5 43.8
10:40 1023 30.21 852 25.16 28.6 83.5 24 6.7 44
10:45 1022 30.18 852 25.16 28.4 83.1 26 7.4 45.4
10:50 1022 30.18 852 25.16 27.8 82 26 6.8 44.2
10:55 1022 30.18 852 25.16 28.1 82.6 25 6.5 43.7
11:00 1022 30.18 852 25.16 27.4 81.3 26 6.5 43.6
11:05 1022 30.18 852 25.16 27.4 81.3 26 6.3 43.3
11:10 1022 30.18 852 25.16 28.5 83.2 22 4.7 40.5
11:15 1022 30.18 851 25.13 29.5 85 22 5.5 42
11:20 1022 30.18 851 25.13 29.8 85.7 23 6.6 43.9
11:25 1022 30.18 852 25.16 29.8 85.6 22 6.3 43.4
11:30 1022 30.18 851 25.13 29.9 85.8 23 7.1 44.8
11:35 1022 30.18 851 25.13 30.1 86.2 22 6.7 44.1
11:40 1022 30.18 851 25.13 30 86 22 6.4 43.6
11:45 1022 30.18 851 25.13 29.6 85.2 25 7.9 46.2
11:50 1022 30.18 851 25.13 29.5 85.1 24 7.3 45.2
11:55 1022 30.18 851 25.13 30.3 86.6 23 7.3 45.2
12:00 1022 30.18 851 25.13 30.3 86.5 25 8.4 47.1
12:05 1022 30.18 851 25.13 30.2 86.3 24 7.7 45.8
12:10 1022 30.18 851 25.13 29.3 84.8 24 7 44.6
12:15 1022 30.18 851 25.13 29.5 85.1 23 6.5 43.7
12:20 1022 30.18 851 25.13 29.7 85.5 21 5.5 41.9
12:25 1022 30.18 851 25.13 30.8 87.4 19 5.2 41.4
12:30 1022 30.18 851 25.13 31.1 88 21 6.5 43.8
12:35 1022 30.18 851 25.13 31.4 88.4 20 6.2 43.1
12:40 1022 30.18 851 25.13 31.3 88.4 21 6.6 43.9
12:45 1022 30.18 851 25.13 31.5 88.7 20 6.5 43.7
12:50 1022 30.18 851 25.13 31.1 87.9 21 6.7 44.1
12:55 1022 30.18 851 25.13 30.8 87.5 22 6.9 44.5
13:00 1022 30.18 851 25.13 31.5 88.7 19 5.8 42.4
13:05 1022 30.18 851 25.13 31.6 88.9 21 7.3 45.2
13:10 1022 30.18 851 25.13 31.1 87.9 23 7.7 45.8
13:15 1021 30.15 851 25.13 31.2 88.1 20 6 42.8
13:20 1021 30.15 851 25.13 30.8 87.4 22 6.8 44.2
13:25 1021 30.15 851 25.13 31.7 89 21 7.4 45.2
13:30 1021 30.15 851 25.13 32 89.7 21 7.4 45.4
13:35 1021 30.15 851 25.13 31.4 88.5 20 5.9 42.6
13:40 1021 30.15 850 25.1 31.5 88.7 21 6.6 43.8
13:45 1021 30.15 850 25.1 31.6 88.9 21 6.7 44.1
13:50 1021 30.15 850 25.1 30.5 86.9 20 5.6 42.1
13:55 1021 30.15 850 25.1 30.4 86.8 20 5.2 41.4
14:00 1021 30.15 850 25.1 30.9 87.5 18 4.2 39.6
14:05 1021 30.15 850 25.1 30.6 87.1 20 5.3 41.6
14:10 1021 30.15 850 25.1 30.2 86.4 21 5.5 42
14:15 1021 30.15 850 25.1 30.5 87 20 5.6 42.1
14:20 1021 30.15 850 25.1 30.5 86.9 22 6.8 44.3
14:25 1021 30.15 850 25.1 30.4 86.7 22 6.6 43.8
14:30 1021 30.15 850 25.1 30.8 87.5 23 7.7 45.8
14:35 1021 30.15 850 25.1 31.1 87.9 22 7 44.5
14:40 1021 30.15 850 25.1 31.6 88.8 20 6.1 43
14:45 1021 30.15 850 25.1 32.1 89.8 19 5.7 42.3
14:50 1021 30.15 850 25.1 32.1 89.7 17 4.6 40.3
14:55 1021 30.15 850 25.1 31.4 88.5 18 4.3 39.7
15:00 1021 30.15 850 25.1 31.9 89.5 17 4.3 39.8
15:05 1021 30.15 850 25.1 32.3 90.1 17 4.6 40.2
15:10 1020 30.12 850 25.1 32 89.6 18 5.1 41.2
15:15 1020 30.12 850 25.1 32.5 90.4 17 4.7 40.5
15:20 1020 30.12 850 25.1 32.8 91 21 7.7 45.9
15:25 1020 30.12 849 25.07 31.3 88.4 21 6.9 44.5
15:30 1020 30.12 849 25.07 30.7 87.3 25 8.8 47.8
15:35 1020 30.12 849 25.07 30.7 87.3 22 6.6 43.9
15:40 1020 30.12 849 25.07 30.5 86.8 22 6.9 44.4
15:45 1020 30.12 849 25.07 30.2 86.3 23 7.2 44.9
15:50 1020 30.12 849 25.07 30.3 86.5 21 6.2 43.1
15:55 1020 30.12 849 25.07 30.4 86.7 22 6.8 44.3
16:00 1020 30.12 849 25.07 30.1 86.2 23 7.3 45.1
16:05 1020 30.12 849 25.07 30.1 86.2 22 6.4 43.5
16:10 1020 30.12 849 25.07 30.2 86.3 23 6.9 44.4
16:15 1020 30.12 849 25.07 30.7 87.3 21 6.2 43.2
16:20 1020 30.12 849 25.07 30.6 87.1 20 5.7 42.2
16:25 1020 30.12 849 25.07 30.6 87.1 22 6.9 44.4
16:30 1020 30.12 849 25.07 30.9 87.7 20 5.8 42.4
16:35 1020 30.12 849 25.07 31.8 89.3 19 5.9 42.6
16:40 1020 30.12 849 25.07 31.6 88.9 19 5.8 42.4
16:45 1020 30.12 849 25.07 31.6 88.9 20 6.4 43.5
16:50 1020 30.12 849 25.07 32 89.6 19 5.9 42.6
16:55 1020 30.12 849 25.07 31.8 89.2 19 6 42.8
17:00 1020 30.12 849 25.07 31.3 88.3 20 6.1 42.9
17:05 1020 30.12 849 25.07 31 87.8 21 6.3 43.4
17:10 1020 30.12 849 25.07 30.8 87.5 22 7.1 44.7
17:15 1020 30.12 849 25.07 30.8 87.4 23 7.8 46.1
17:20 1020 30.12 849 25.07 30.9 87.6 20 5.6 42.1
17:25 1019 30.09 849 25.07 30.8 87.5 25 8.6 47.5
17:30 1019 30.09 849 25.07 30.3 86.6 23 7.5 45.5
17:35 1019 30.09 848 25.04 30.3 86.5 24 8 46.4
17:40 1019 30.09 849 25.07 30.2 86.3 22 6.5 43.8
17:45 1019 30.09 849 25.07 30.1 86.2 22 6.3 43.3
17:50 1019 30.09 849 25.07 30.6 87.1 22 7 44.7
17:55 1019 30.09 849 25.07 31.1 87.9 20 5.8 42.5
18:00 1019 30.09 849 25.07 30.8 87.5 20 6 42.7
18:05 1019 30.09 849 25.07 30.4 86.8 20 5.3 41.5
18:10 1019 30.09 849 25.07 30.3 86.5 22 6.5 43.8
18:15 1019 30.09 849 25.07 30.2 86.3 20 5.2 41.3
18:20 1019 30.09 849 25.07 30 86.1 21 5.9 42.6
18:25 1019 30.09 849 25.07 30.1 86.2 21 5.5 42
18:30 1019 30.09 849 25.07 30.3 86.5 20 5.2 41.4
18:35 1019 30.09 849 25.07 30.3 86.5 21 5.6 42.1
18:40 1019 30.09 848 25.04 30.3 86.5 24 8 46.3
18:45 1019 30.09 848 25.04 30.2 86.4 21 6.1 43
18:50 1019 30.09 848 25.04 30.3 86.6 21 6.1 43
18:55 1019 30.09 848 25.04 30.2 86.4 21 5.8 42.4
19:00 1019 30.09 848 25.04 30.1 86.2 22 6.5 43.7
19:05 1019 30.09 848 25.04 29.9 85.9 21 5.8 42.5
19:10 1019 30.09 848 25.04 29.9 85.7 23 7.1 44.8
19:15 1019 30.09 848 25.04 30 85.9 21 5.9 42.6
19:20 1019 30.09 848 25.04 30 86 23 7.1 44.8
19:25 1019 30.09 848 25.04 29.8 85.6 23 6.8 44.3
19:30 1019 30.09 848 25.04 29.6 85.3 27 8.7 47.7
19:35 1019 30.09 848 25.04 29.4 84.9 30 10.3 50.6
19:40 1019 30.09 848 25.04 29.3 84.7 27 8.8 47.9
19:45 1019 30.09 848 25.04 29.4 84.9 25 7.9 46.2
19:50 1020 30.12 849 25.07 29.2 84.5 21 5.1 41.1
19:55 1020 30.12 849 25.07 28.1 82.6 21 3.9 38.9
20:00 1020 30.12 849 25.07 27.3 81.1 22 3.7 38.7
20:05 1020 30.12 849 25.07 26.8 80.3 23 4.1 39.5
20:10 1020 30.12 850 25.1 26.9 80.3 22 4 39.1
20:15 1020 30.12 850 25.1 26.5 79.7 23 4.2 39.5
20:20 1021 30.15 850 25.1 26.2 79.2 22 3.2 37.7
20:25 1021 30.15 850 25.1 26.3 79.3 23 3.8 38.9
20:30 1021 30.15 850 25.1 26.3 79.3 22 3.2 37.8
20:35 1021 30.15 850 25.1 26 78.8 23 3.6 38.6
20:40 1021 30.15 850 25.1 25.8 78.4 23 3.5 38.2
20:45 1021 30.15 850 25.1 25.8 78.4 24 3.9 39
20:50 1021 30.15 850 25.1 25.6 78 24 3.8 38.8
20:55 1021 30.15 850 25.1 25.3 77.6 25 3.9 39
21:00 1021 30.15 850 25.1 25.1 77.2 24 3.6 38.6
21:05 1021 30.15 850 25.1 24.9 76.8 26 4.1 39.4
21:10 1021 30.15 850 25.1 24.4 75.9 28 5 41
21:15 1021 30.15 850 25.1 23.9 75.1 29 5 41.1
21:20 1021 30.15 850 25.1 23.6 74.4 32 6.1 43.1
21:25 1021 30.15 850 25.1 23.1 73.5 32 5.8 42.5
21:30 1021 30.15 850 25.1 23 73.4 32 5.7 42.3
21:35 1020 30.12 850 25.1 22.7 72.9 34 6.3 43.3
21:40 1020 30.12 850 25.1 22.5 72.6 33 5.8 42.4
21:45 1021 30.15 850 25.1 22.8 73.1 32 5.4 41.7
21:50 1021 30.15 850 25.1 23.3 73.9 30 4.8 40.7
21:55 1021 30.15 850 25.1 23.5 74.3 30 5.1 41.2
22:00 1021 30.15 850 25.1 23.5 74.3 30 5.1 41.2
22:05 1021 30.15 850 25.1 23.4 74.1 29 4.7 40.5
22:10 1021 30.15 850 25.1 23.6 74.5 28 4.4 39.9
22:15 1021 30.15 850 25.1 23.8 74.9 30 5.2 41.4
22:20 1021 30.15 850 25.1 23.7 74.7 28 4.5 40.2
22:25 1021 30.15 850 25.1 23.7 74.6 28 4.2 39.5
22:30 1021 30.15 850 25.1 23.9 75 27 4 39.3
22:35 1021 30.15 850 25.1 24 75.2 28 4.5 40
22:40 1021 30.15 850 25.1 23.8 74.8 28 4.4 40
22:45 1021 30.15 850 25.1 23.6 74.4 28 4 39.3
22:50 1021 30.15 850 25.1 23.8 74.8 26 3.1 37.6
22:55 1021 30.15 850 25.1 24.2 75.6 25 3.1 37.5
23:00 1021 30.15 850 25.1 24.4 76 24 2.6 36.6
23:05 1021 30.15 850 25.1 24.3 75.7 25 3.2 37.7
23:10 1021 30.15 850 25.1 24.3 75.7 22 1.5 34.7
23:15 1021 30.15 850 25.1 24.9 76.8 22 1.9 35.4
23:20 1021 30.15 850 25.1 24.7 76.5 23 2.4 36.3
23:25 1021 30.15 850 25.1 24.4 75.9 24 2.5 36.5
23:30 1021 30.15 850 25.1 24.2 75.5 24 2.7 36.9
23:35 1021 30.15 850 25.1 23.9 75 26 3.3 38
23:40 1021 30.15 850 25.1 23.5 74.2 27 3.7 38.7
23:45 1021 30.15 850 25.1 23.3 73.9 31 5.4 41.6
23:50 1021 30.15 850 25.1 22.9 73.1 30 4.4 40
23:55 1021 30.15 850 25.1 22.5 72.6 31 4.8 40.6
24:00 1021 30.15 850 25.1 22.2 72 33 5.4 41.6